sensor_id;sensor_type;location;lat;lon;timestamp;P1;durP1;ratioP1;P2;durP2;ratioP2
3487;SDS011;38546;48.170;11.724;2023-12-28T00:01:43;8.10;;;3.97;;
3487;SDS011;38546;48.170;11.724;2023-12-28T00:04:32;5.77;;;3.60;;
3487;SDS011;38546;48.170;11.724;2023-12-28T00:07:23;4.43;;;3.60;;
3487;SDS011;38546;48.170;11.724;2023-12-28T00:10:12;3.63;;;3.27;;
3487;SDS011;38546;48.170;11.724;2023-12-28T00:13:02;3.60;;;3.27;;
3487;SDS011;38546;48.170;11.724;2023-12-28T00:15:52;3.03;;;2.83;;
3487;SDS011;38546;48.170;11.724;2023-12-28T00:18:41;4.70;;;3.30;;
3487;SDS011;38546;48.170;11.724;2023-12-28T00:21:30;3.93;;;2.83;;
3487;SDS011;38546;48.170;11.724;2023-12-28T00:24:19;2.80;;;2.60;;
3487;SDS011;38546;48.170;11.724;2023-12-28T00:27:10;4.23;;;3.30;;
3487;SDS011;38546;48.170;11.724;2023-12-28T00:30:00;3.53;;;3.23;;
3487;SDS011;38546;48.170;11.724;2023-12-28T00:32:50;4.07;;;2.70;;
3487;SDS011;38546;48.170;11.724;2023-12-28T00:35:39;3.80;;;3.00;;
3487;SDS011;38546;48.170;11.724;2023-12-28T00:38:28;2.70;;;2.60;;
3487;SDS011;38546;48.170;11.724;2023-12-28T00:41:17;4.40;;;2.87;;
3487;SDS011;38546;48.170;11.724;2023-12-28T00:44:06;2.80;;;2.63;;
3487;SDS011;38546;48.170;11.724;2023-12-28T00:46:58;2.57;;;2.37;;
3487;SDS011;38546;48.170;11.724;2023-12-28T00:49:47;2.73;;;2.37;;
3487;SDS011;38546;48.170;11.724;2023-12-28T00:52:36;2.00;;;1.90;;
3487;SDS011;38546;48.170;11.724;2023-12-28T00:55:26;3.97;;;1.73;;
3487;SDS011;38546;48.170;11.724;2023-12-28T00:58:16;2.43;;;2.33;;
3487;SDS011;38546;48.170;11.724;2023-12-28T01:01:06;2.60;;;2.20;;
3487;SDS011;38546;48.170;11.724;2023-12-28T01:03:55;3.00;;;2.70;;
3487;SDS011;38546;48.170;11.724;2023-12-28T01:06:44;2.20;;;2.03;;
3487;SDS011;38546;48.170;11.724;2023-12-28T01:09:33;2.87;;;1.80;;
3487;SDS011;38546;48.170;11.724;2023-12-28T01:12:22;2.50;;;2.10;;
3487;SDS011;38546;48.170;11.724;2023-12-28T01:15:11;2.30;;;2.20;;
3487;SDS011;38546;48.170;11.724;2023-12-28T01:18:01;2.00;;;1.90;;
3487;SDS011;38546;48.170;11.724;2023-12-28T01:20:50;2.23;;;2.03;;
3487;SDS011;38546;48.170;11.724;2023-12-28T01:23:40;1.80;;;1.70;;
3487;SDS011;38546;48.170;11.724;2023-12-28T01:26:29;1.97;;;1.87;;
3487;SDS011;38546;48.170;11.724;2023-12-28T01:29:18;3.10;;;2.30;;
3487;SDS011;38546;48.170;11.724;2023-12-28T01:32:07;2.03;;;1.80;;
3487;SDS011;38546;48.170;11.724;2023-12-28T01:34:56;2.10;;;1.80;;
3487;SDS011;38546;48.170;11.724;2023-12-28T01:37:45;2.10;;;2.00;;
3487;SDS011;38546;48.170;11.724;2023-12-28T01:40:34;2.20;;;2.10;;
3487;SDS011;38546;48.170;11.724;2023-12-28T01:43:24;2.43;;;2.13;;
3487;SDS011;38546;48.170;11.724;2023-12-28T01:46:14;2.07;;;1.90;;
3487;SDS011;38546;48.170;11.724;2023-12-28T01:49:05;2.53;;;2.33;;
3487;SDS011;38546;48.170;11.724;2023-12-28T01:51:55;2.33;;;2.03;;
3487;SDS011;38546;48.170;11.724;2023-12-28T01:54:44;2.70;;;2.50;;
3487;SDS011;38546;48.170;11.724;2023-12-28T01:57:34;2.17;;;2.00;;
3487;SDS011;38546;48.170;11.724;2023-12-28T02:00:24;1.93;;;1.83;;
3487;SDS011;38546;48.170;11.724;2023-12-28T02:03:14;3.03;;;1.97;;
3487;SDS011;38546;48.170;11.724;2023-12-28T02:06:03;2.23;;;2.00;;
3487;SDS011;38546;48.170;11.724;2023-12-28T02:08:55;2.80;;;2.33;;
3487;SDS011;38546;48.170;11.724;2023-12-28T02:11:45;2.10;;;2.00;;
3487;SDS011;38546;48.170;11.724;2023-12-28T02:14:34;2.30;;;1.73;;
3487;SDS011;38546;48.170;11.724;2023-12-28T02:17:34;2.70;;;2.10;;
3487;SDS011;38546;48.170;11.724;2023-12-28T02:20:31;2.37;;;1.77;;
3487;SDS011;38546;48.170;11.724;2023-12-28T02:23:22;3.10;;;1.80;;
3487;SDS011;38546;48.170;11.724;2023-12-28T02:26:11;1.80;;;1.70;;
3487;SDS011;38546;48.170;11.724;2023-12-28T02:29:00;2.43;;;1.90;;
3487;SDS011;38546;48.170;11.724;2023-12-28T02:31:51;7.33;;;2.30;;
3487;SDS011;38546;48.170;11.724;2023-12-28T02:34:49;2.00;;;1.90;;
3487;SDS011;38546;48.170;11.724;2023-12-28T02:37:44;2.23;;;2.03;;
3487;SDS011;38546;48.170;11.724;2023-12-28T02:40:37;2.07;;;1.90;;
3487;SDS011;38546;48.170;11.724;2023-12-28T02:43:34;7.80;;;2.33;;
3487;SDS011;38546;48.170;11.724;2023-12-28T02:46:24;2.07;;;1.97;;
3487;SDS011;38546;48.170;11.724;2023-12-28T02:49:13;1.93;;;1.83;;
3487;SDS011;38546;48.170;11.724;2023-12-28T02:52:04;2.10;;;2.00;;
3487;SDS011;38546;48.170;11.724;2023-12-28T02:54:54;1.70;;;1.70;;
3487;SDS011;38546;48.170;11.724;2023-12-28T02:57:43;1.70;;;1.60;;
3487;SDS011;38546;48.170;11.724;2023-12-28T03:00:33;2.00;;;1.90;;
3487;SDS011;38546;48.170;11.724;2023-12-28T03:03:22;2.93;;;2.00;;
3487;SDS011;38546;48.170;11.724;2023-12-28T03:06:12;2.50;;;2.30;;
3487;SDS011;38546;48.170;11.724;2023-12-28T03:09:00;3.40;;;2.43;;
3487;SDS011;38546;48.170;11.724;2023-12-28T03:11:50;3.00;;;2.47;;
3487;SDS011;38546;48.170;11.724;2023-12-28T03:14:39;2.07;;;1.80;;
3487;SDS011;38546;48.170;11.724;2023-12-28T03:17:28;2.70;;;1.93;;
3487;SDS011;38546;48.170;11.724;2023-12-28T03:20:19;1.80;;;1.70;;
3487;SDS011;38546;48.170;11.724;2023-12-28T03:23:11;3.23;;;2.00;;
3487;SDS011;38546;48.170;11.724;2023-12-28T03:26:01;3.37;;;2.40;;
3487;SDS011;38546;48.170;11.724;2023-12-28T03:28:51;2.07;;;1.70;;
3487;SDS011;38546;48.170;11.724;2023-12-28T03:31:42;1.63;;;1.53;;
3487;SDS011;38546;48.170;11.724;2023-12-28T03:34:31;1.80;;;1.70;;
3487;SDS011;38546;48.170;11.724;2023-12-28T03:37:20;1.90;;;1.80;;
3487;SDS011;38546;48.170;11.724;2023-12-28T03:40:10;3.57;;;1.60;;
3487;SDS011;38546;48.170;11.724;2023-12-28T03:42:59;1.50;;;1.40;;
3487;SDS011;38546;48.170;11.724;2023-12-28T03:45:48;1.90;;;1.50;;
3487;SDS011;38546;48.170;11.724;2023-12-28T03:48:38;1.53;;;1.43;;
3487;SDS011;38546;48.170;11.724;2023-12-28T03:51:27;2.17;;;1.70;;
3487;SDS011;38546;48.170;11.724;2023-12-28T03:54:17;1.10;;;1.10;;
3487;SDS011;38546;48.170;11.724;2023-12-28T03:57:07;1.10;;;1.10;;
3487;SDS011;38546;48.170;11.724;2023-12-28T03:59:56;1.00;;;1.00;;
3487;SDS011;38546;48.170;11.724;2023-12-28T04:02:46;1.60;;;1.40;;
3487;SDS011;38546;48.170;11.724;2023-12-28T04:05:35;1.03;;;1.03;;
3487;SDS011;38546;48.170;11.724;2023-12-28T04:08:24;1.70;;;1.27;;
3487;SDS011;38546;48.170;11.724;2023-12-28T04:11:13;1.70;;;1.00;;
3487;SDS011;38546;48.170;11.724;2023-12-28T04:14:03;1.07;;;1.00;;
3487;SDS011;38546;48.170;11.724;2023-12-28T04:16:53;1.03;;;1.03;;
3487;SDS011;38546;48.170;11.724;2023-12-28T04:19:42;1.20;;;1.10;;
3487;SDS011;38546;48.170;11.724;2023-12-28T04:22:31;1.23;;;1.23;;
3487;SDS011;38546;48.170;11.724;2023-12-28T04:25:20;0.93;;;0.93;;
3487;SDS011;38546;48.170;11.724;2023-12-28T04:28:09;1.23;;;1.07;;
3487;SDS011;38546;48.170;11.724;2023-12-28T04:30:59;0.80;;;0.80;;
3487;SDS011;38546;48.170;11.724;2023-12-28T04:33:52;1.53;;;1.07;;
3487;SDS011;38546;48.170;11.724;2023-12-28T04:36:41;0.90;;;0.90;;
3487;SDS011;38546;48.170;11.724;2023-12-28T04:39:32;1.00;;;0.90;;
3487;SDS011;38546;48.170;11.724;2023-12-28T04:42:21;0.90;;;0.90;;
3487;SDS011;38546;48.170;11.724;2023-12-28T04:45:10;1.77;;;1.67;;
3487;SDS011;38546;48.170;11.724;2023-12-28T04:47:59;0.73;;;0.73;;
3487;SDS011;38546;48.170;11.724;2023-12-28T04:50:49;1.17;;;1.17;;
3487;SDS011;38546;48.170;11.724;2023-12-28T04:53:39;1.10;;;1.10;;
3487;SDS011;38546;48.170;11.724;2023-12-28T04:56:28;1.37;;;1.37;;
3487;SDS011;38546;48.170;11.724;2023-12-28T04:59:17;1.23;;;1.20;;
3487;SDS011;38546;48.170;11.724;2023-12-28T05:02:06;0.97;;;0.97;;
3487;SDS011;38546;48.170;11.724;2023-12-28T05:04:56;1.53;;;1.00;;
3487;SDS011;38546;48.170;11.724;2023-12-28T05:07:45;0.90;;;0.90;;
3487;SDS011;38546;48.170;11.724;2023-12-28T05:10:34;7.20;;;1.17;;
3487;SDS011;38546;48.170;11.724;2023-12-28T05:13:23;1.80;;;1.40;;
3487;SDS011;38546;48.170;11.724;2023-12-28T05:16:12;1.20;;;1.20;;
3487;SDS011;38546;48.170;11.724;2023-12-28T05:19:02;1.57;;;0.90;;
3487;SDS011;38546;48.170;11.724;2023-12-28T05:21:51;1.00;;;0.87;;
3487;SDS011;38546;48.170;11.724;2023-12-28T05:24:40;1.27;;;1.20;;
3487;SDS011;38546;48.170;11.724;2023-12-28T05:27:29;1.33;;;1.00;;
3487;SDS011;38546;48.170;11.724;2023-12-28T05:30:18;1.90;;;1.17;;
3487;SDS011;38546;48.170;11.724;2023-12-28T05:33:08;1.07;;;1.07;;
3487;SDS011;38546;48.170;11.724;2023-12-28T05:35:58;1.03;;;1.03;;
3487;SDS011;38546;48.170;11.724;2023-12-28T05:38:47;1.07;;;1.07;;
3487;SDS011;38546;48.170;11.724;2023-12-28T05:41:36;0.80;;;0.80;;
3487;SDS011;38546;48.170;11.724;2023-12-28T05:44:25;1.13;;;1.13;;
3487;SDS011;38546;48.170;11.724;2023-12-28T05:47:14;1.67;;;1.00;;
3487;SDS011;38546;48.170;11.724;2023-12-28T05:50:04;1.00;;;1.00;;
3487;SDS011;38546;48.170;11.724;2023-12-28T05:52:54;1.30;;;1.20;;
3487;SDS011;38546;48.170;11.724;2023-12-28T05:55:43;1.23;;;1.23;;
3487;SDS011;38546;48.170;11.724;2023-12-28T05:58:32;1.57;;;1.40;;
3487;SDS011;38546;48.170;11.724;2023-12-28T06:01:22;2.13;;;1.30;;
3487;SDS011;38546;48.170;11.724;2023-12-28T06:04:10;1.17;;;1.10;;
3487;SDS011;38546;48.170;11.724;2023-12-28T06:06:59;1.97;;;1.60;;
3487;SDS011;38546;48.170;11.724;2023-12-28T06:09:48;1.07;;;1.07;;
3487;SDS011;38546;48.170;11.724;2023-12-28T06:12:38;1.10;;;1.00;;
3487;SDS011;38546;48.170;11.724;2023-12-28T06:15:26;1.20;;;1.20;;
3487;SDS011;38546;48.170;11.724;2023-12-28T06:18:15;1.23;;;1.23;;
3487;SDS011;38546;48.170;11.724;2023-12-28T06:21:04;1.40;;;1.20;;
3487;SDS011;38546;48.170;11.724;2023-12-28T06:23:54;1.40;;;1.30;;
3487;SDS011;38546;48.170;11.724;2023-12-28T06:26:44;1.30;;;1.20;;
3487;SDS011;38546;48.170;11.724;2023-12-28T06:29:33;1.50;;;1.30;;
3487;SDS011;38546;48.170;11.724;2023-12-28T06:32:22;1.37;;;1.10;;
3487;SDS011;38546;48.170;11.724;2023-12-28T06:35:11;1.10;;;1.10;;
3487;SDS011;38546;48.170;11.724;2023-12-28T06:38:00;1.83;;;1.30;;
3487;SDS011;38546;48.170;11.724;2023-12-28T06:40:51;1.30;;;1.20;;
3487;SDS011;38546;48.170;11.724;2023-12-28T06:43:40;1.30;;;1.20;;
3487;SDS011;38546;48.170;11.724;2023-12-28T06:46:29;1.27;;;1.27;;
3487;SDS011;38546;48.170;11.724;2023-12-28T06:49:18;1.10;;;1.10;;
3487;SDS011;38546;48.170;11.724;2023-12-28T06:52:06;1.37;;;1.27;;
3487;SDS011;38546;48.170;11.724;2023-12-28T06:54:55;1.30;;;1.20;;
3487;SDS011;38546;48.170;11.724;2023-12-28T06:57:44;2.10;;;2.00;;
3487;SDS011;38546;48.170;11.724;2023-12-28T07:00:33;2.43;;;1.10;;
3487;SDS011;38546;48.170;11.724;2023-12-28T07:03:23;2.33;;;1.10;;
3487;SDS011;38546;48.170;11.724;2023-12-28T07:06:13;1.10;;;1.10;;
3487;SDS011;38546;48.170;11.724;2023-12-28T07:09:03;1.17;;;1.17;;
3487;SDS011;38546;48.170;11.724;2023-12-28T07:11:52;1.40;;;1.37;;
3487;SDS011;38546;48.170;11.724;2023-12-28T07:14:41;1.40;;;1.30;;
3487;SDS011;38546;48.170;11.724;2023-12-28T07:17:30;4.17;;;1.33;;
3487;SDS011;38546;48.170;11.724;2023-12-28T07:20:19;2.90;;;1.50;;
3487;SDS011;38546;48.170;11.724;2023-12-28T07:23:08;3.13;;;1.50;;
3487;SDS011;38546;48.170;11.724;2023-12-28T07:25:57;1.90;;;1.80;;
3487;SDS011;38546;48.170;11.724;2023-12-28T07:28:46;1.30;;;1.30;;
3487;SDS011;38546;48.170;11.724;2023-12-28T07:31:37;2.10;;;1.40;;
3487;SDS011;38546;48.170;11.724;2023-12-28T07:34:26;1.90;;;1.53;;
3487;SDS011;38546;48.170;11.724;2023-12-28T07:37:16;1.47;;;1.37;;
3487;SDS011;38546;48.170;11.724;2023-12-28T07:40:05;1.60;;;1.50;;
3487;SDS011;38546;48.170;11.724;2023-12-28T07:42:55;1.70;;;1.60;;
3487;SDS011;38546;48.170;11.724;2023-12-28T07:45:45;1.70;;;1.57;;
3487;SDS011;38546;48.170;11.724;2023-12-28T07:48:34;1.63;;;1.53;;
3487;SDS011;38546;48.170;11.724;2023-12-28T07:51:23;1.23;;;1.23;;
3487;SDS011;38546;48.170;11.724;2023-12-28T07:54:12;1.30;;;1.30;;
3487;SDS011;38546;48.170;11.724;2023-12-28T07:57:01;1.77;;;1.70;;
3487;SDS011;38546;48.170;11.724;2023-12-28T07:59:50;1.97;;;1.77;;
3487;SDS011;38546;48.170;11.724;2023-12-28T08:02:39;2.03;;;1.83;;
3487;SDS011;38546;48.170;11.724;2023-12-28T08:05:29;1.63;;;1.13;;
3487;SDS011;38546;48.170;11.724;2023-12-28T08:08:18;2.17;;;2.00;;
3487;SDS011;38546;48.170;11.724;2023-12-28T08:11:07;6.23;;;3.40;;
3487;SDS011;38546;48.170;11.724;2023-12-28T08:13:56;4.77;;;3.60;;
3487;SDS011;38546;48.170;11.724;2023-12-28T08:16:46;5.40;;;3.70;;
3487;SDS011;38546;48.170;11.724;2023-12-28T08:19:35;4.40;;;3.80;;
3487;SDS011;38546;48.170;11.724;2023-12-28T08:22:24;5.13;;;4.33;;
3487;SDS011;38546;48.170;11.724;2023-12-28T08:25:14;4.57;;;3.50;;
3487;SDS011;38546;48.170;11.724;2023-12-28T08:28:03;4.70;;;2.80;;
3487;SDS011;38546;48.170;11.724;2023-12-28T08:30:53;5.00;;;2.20;;
3487;SDS011;38546;48.170;11.724;2023-12-28T08:33:43;2.13;;;2.03;;
3487;SDS011;38546;48.170;11.724;2023-12-28T08:36:32;2.00;;;1.73;;
3487;SDS011;38546;48.170;11.724;2023-12-28T08:39:21;1.40;;;1.30;;
3487;SDS011;38546;48.170;11.724;2023-12-28T08:42:10;1.70;;;1.53;;
3487;SDS011;38546;48.170;11.724;2023-12-28T08:45:00;2.33;;;1.50;;
3487;SDS011;38546;48.170;11.724;2023-12-28T08:47:50;3.17;;;2.30;;
3487;SDS011;38546;48.170;11.724;2023-12-28T08:50:39;3.13;;;2.00;;
3487;SDS011;38546;48.170;11.724;2023-12-28T08:53:28;1.93;;;1.70;;
3487;SDS011;38546;48.170;11.724;2023-12-28T08:56:19;1.60;;;1.60;;
3487;SDS011;38546;48.170;11.724;2023-12-28T08:59:09;1.73;;;1.63;;
3487;SDS011;38546;48.170;11.724;2023-12-28T09:01:58;1.93;;;1.83;;
3487;SDS011;38546;48.170;11.724;2023-12-28T09:04:50;5.17;;;2.50;;
3487;SDS011;38546;48.170;11.724;2023-12-28T09:07:39;3.00;;;2.10;;
3487;SDS011;38546;48.170;11.724;2023-12-28T09:10:31;6.03;;;1.67;;
3487;SDS011;38546;48.170;11.724;2023-12-28T09:13:21;1.50;;;1.40;;
3487;SDS011;38546;48.170;11.724;2023-12-28T09:16:11;1.50;;;1.50;;
3487;SDS011;38546;48.170;11.724;2023-12-28T09:19:02;1.20;;;1.20;;
3487;SDS011;38546;48.170;11.724;2023-12-28T09:21:51;1.67;;;1.57;;
3487;SDS011;38546;48.170;11.724;2023-12-28T09:24:40;1.40;;;1.27;;
3487;SDS011;38546;48.170;11.724;2023-12-28T09:27:29;1.50;;;1.40;;
3487;SDS011;38546;48.170;11.724;2023-12-28T09:30:18;1.77;;;1.40;;
3487;SDS011;38546;48.170;11.724;2023-12-28T09:33:07;1.30;;;1.13;;
3487;SDS011;38546;48.170;11.724;2023-12-28T09:35:57;1.30;;;1.30;;
3487;SDS011;38546;48.170;11.724;2023-12-28T09:38:46;1.40;;;1.30;;
3487;SDS011;38546;48.170;11.724;2023-12-28T09:41:36;1.73;;;1.10;;
3487;SDS011;38546;48.170;11.724;2023-12-28T09:44:32;1.50;;;1.40;;
3487;SDS011;38546;48.170;11.724;2023-12-28T09:47:23;1.40;;;1.30;;
3487;SDS011;38546;48.170;11.724;2023-12-28T09:50:14;1.50;;;1.40;;
3487;SDS011;38546;48.170;11.724;2023-12-28T09:53:06;1.37;;;1.37;;
3487;SDS011;38546;48.170;11.724;2023-12-28T09:55:55;1.37;;;1.37;;
3487;SDS011;38546;48.170;11.724;2023-12-28T09:58:48;2.03;;;1.13;;
3487;SDS011;38546;48.170;11.724;2023-12-28T10:01:39;1.37;;;1.17;;
3487;SDS011;38546;48.170;11.724;2023-12-28T10:04:29;1.40;;;1.30;;
3487;SDS011;38546;48.170;11.724;2023-12-28T10:07:19;2.20;;;2.00;;
3487;SDS011;38546;48.170;11.724;2023-12-28T10:10:09;2.83;;;2.10;;
3487;SDS011;38546;48.170;11.724;2023-12-28T10:12:59;2.90;;;2.73;;
3487;SDS011;38546;48.170;11.724;2023-12-28T10:15:49;1.70;;;1.60;;
3487;SDS011;38546;48.170;11.724;2023-12-28T10:18:41;1.63;;;1.53;;
3487;SDS011;38546;48.170;11.724;2023-12-28T10:21:31;1.80;;;1.70;;
3487;SDS011;38546;48.170;11.724;2023-12-28T10:24:21;1.40;;;1.40;;
3487;SDS011;38546;48.170;11.724;2023-12-28T10:27:11;1.03;;;1.03;;
3487;SDS011;38546;48.170;11.724;2023-12-28T10:30:03;1.37;;;1.27;;
3487;SDS011;38546;48.170;11.724;2023-12-28T10:32:53;1.30;;;1.30;;
3487;SDS011;38546;48.170;11.724;2023-12-28T10:35:43;1.90;;;1.57;;
3487;SDS011;38546;48.170;11.724;2023-12-28T10:38:34;1.73;;;1.63;;
3487;SDS011;38546;48.170;11.724;2023-12-28T10:41:25;4.00;;;1.73;;
3487;SDS011;38546;48.170;11.724;2023-12-28T10:44:19;1.60;;;1.20;;
3487;SDS011;38546;48.170;11.724;2023-12-28T10:47:12;1.50;;;1.40;;
3487;SDS011;38546;48.170;11.724;2023-12-28T10:50:06;1.67;;;1.20;;
3487;SDS011;38546;48.170;11.724;2023-12-28T10:53:00;1.07;;;1.07;;
3487;SDS011;38546;48.170;11.724;2023-12-28T10:56:55;2.67;;;1.10;;
3487;SDS011;38546;48.170;11.724;2023-12-28T11:00:08;2.00;;;1.90;;
3487;SDS011;38546;48.170;11.724;2023-12-28T11:03:02;1.00;;;1.00;;
3487;SDS011;38546;48.170;11.724;2023-12-28T11:05:55;1.30;;;1.20;;
3487;SDS011;38546;48.170;11.724;2023-12-28T11:08:46;1.40;;;1.30;;
3487;SDS011;38546;48.170;11.724;2023-12-28T11:11:40;1.40;;;1.40;;
3487;SDS011;38546;48.170;11.724;2023-12-28T11:14:33;2.00;;;1.40;;
3487;SDS011;38546;48.170;11.724;2023-12-28T11:17:24;1.23;;;1.13;;
3487;SDS011;38546;48.170;11.724;2023-12-28T11:20:14;1.30;;;1.20;;
3487;SDS011;38546;48.170;11.724;2023-12-28T11:23:04;1.07;;;1.00;;
3487;SDS011;38546;48.170;11.724;2023-12-28T11:25:54;1.60;;;1.50;;
3487;SDS011;38546;48.170;11.724;2023-12-28T11:28:44;1.23;;;1.13;;
3487;SDS011;38546;48.170;11.724;2023-12-28T11:31:34;1.20;;;1.10;;
3487;SDS011;38546;48.170;11.724;2023-12-28T11:34:28;1.10;;;1.10;;
3487;SDS011;38546;48.170;11.724;2023-12-28T11:37:19;1.10;;;1.00;;
3487;SDS011;38546;48.170;11.724;2023-12-28T11:40:11;0.97;;;0.93;;
3487;SDS011;38546;48.170;11.724;2023-12-28T11:43:04;1.20;;;1.20;;
3487;SDS011;38546;48.170;11.724;2023-12-28T11:46:07;1.57;;;1.47;;
3487;SDS011;38546;48.170;11.724;2023-12-28T11:49:03;1.30;;;1.07;;
3487;SDS011;38546;48.170;11.724;2023-12-28T11:51:57;1.43;;;1.37;;
3487;SDS011;38546;48.170;11.724;2023-12-28T11:54:50;1.10;;;1.10;;
3487;SDS011;38546;48.170;11.724;2023-12-28T11:57:39;1.17;;;1.00;;
3487;SDS011;38546;48.170;11.724;2023-12-28T12:00:28;2.37;;;2.17;;
3487;SDS011;38546;48.170;11.724;2023-12-28T12:03:17;1.30;;;1.20;;
3487;SDS011;38546;48.170;11.724;2023-12-28T12:06:08;1.00;;;1.00;;
3487;SDS011;38546;48.170;11.724;2023-12-28T12:08:57;1.43;;;1.33;;
3487;SDS011;38546;48.170;11.724;2023-12-28T12:11:48;1.37;;;1.27;;
3487;SDS011;38546;48.170;11.724;2023-12-28T12:14:37;1.67;;;1.20;;
3487;SDS011;38546;48.170;11.724;2023-12-28T12:17:28;1.27;;;1.27;;
3487;SDS011;38546;48.170;11.724;2023-12-28T12:20:18;1.27;;;1.27;;
3487;SDS011;38546;48.170;11.724;2023-12-28T12:23:08;1.73;;;1.33;;
3487;SDS011;38546;48.170;11.724;2023-12-28T12:25:57;1.47;;;1.37;;
3487;SDS011;38546;48.170;11.724;2023-12-28T12:28:47;2.70;;;1.73;;
3487;SDS011;38546;48.170;11.724;2023-12-28T12:31:36;1.40;;;1.40;;
3487;SDS011;38546;48.170;11.724;2023-12-28T12:34:29;1.30;;;1.30;;
3487;SDS011;38546;48.170;11.724;2023-12-28T12:37:19;1.33;;;1.23;;
3487;SDS011;38546;48.170;11.724;2023-12-28T12:40:09;1.10;;;1.10;;
3487;SDS011;38546;48.170;11.724;2023-12-28T12:42:58;1.00;;;1.00;;
3487;SDS011;38546;48.170;11.724;2023-12-28T12:45:48;0.97;;;0.80;;
3487;SDS011;38546;48.170;11.724;2023-12-28T12:48:38;1.73;;;1.63;;
3487;SDS011;38546;48.170;11.724;2023-12-28T12:51:29;2.57;;;2.13;;
3487;SDS011;38546;48.170;11.724;2023-12-28T12:54:19;2.90;;;2.10;;
3487;SDS011;38546;48.170;11.724;2023-12-28T12:57:08;3.33;;;2.90;;
3487;SDS011;38546;48.170;11.724;2023-12-28T12:59:59;4.33;;;3.30;;
3487;SDS011;38546;48.170;11.724;2023-12-28T13:02:50;4.10;;;3.67;;
3487;SDS011;38546;48.170;11.724;2023-12-28T13:05:42;5.00;;;4.10;;
3487;SDS011;38546;48.170;11.724;2023-12-28T13:08:33;4.73;;;2.97;;
3487;SDS011;38546;48.170;11.724;2023-12-28T13:11:22;3.37;;;3.07;;
3487;SDS011;38546;48.170;11.724;2023-12-28T13:14:15;6.23;;;3.20;;
3487;SDS011;38546;48.170;11.724;2023-12-28T13:17:04;3.33;;;3.00;;
3487;SDS011;38546;48.170;11.724;2023-12-28T13:19:53;5.17;;;4.50;;
3487;SDS011;38546;48.170;11.724;2023-12-28T13:22:42;5.10;;;4.00;;
3487;SDS011;38546;48.170;11.724;2023-12-28T13:25:31;4.80;;;3.30;;
3487;SDS011;38546;48.170;11.724;2023-12-28T13:28:20;7.63;;;4.50;;
3487;SDS011;38546;48.170;11.724;2023-12-28T13:31:09;11.73;;;5.60;;
3487;SDS011;38546;48.170;11.724;2023-12-28T13:33:58;10.20;;;6.37;;
3487;SDS011;38546;48.170;11.724;2023-12-28T13:36:47;13.20;;;7.57;;
3487;SDS011;38546;48.170;11.724;2023-12-28T13:39:37;9.83;;;7.00;;
3487;SDS011;38546;48.170;11.724;2023-12-28T13:42:27;9.30;;;5.87;;
3487;SDS011;38546;48.170;11.724;2023-12-28T13:45:16;8.97;;;5.67;;
3487;SDS011;38546;48.170;11.724;2023-12-28T13:48:06;5.17;;;3.33;;
3487;SDS011;38546;48.170;11.724;2023-12-28T13:50:57;3.90;;;2.60;;
3487;SDS011;38546;48.170;11.724;2023-12-28T13:53:46;2.17;;;1.97;;
3487;SDS011;38546;48.170;11.724;2023-12-28T13:56:35;2.83;;;2.63;;
3487;SDS011;38546;48.170;11.724;2023-12-28T13:59:24;5.23;;;3.50;;
3487;SDS011;38546;48.170;11.724;2023-12-28T14:02:13;6.47;;;3.77;;
3487;SDS011;38546;48.170;11.724;2023-12-28T14:05:03;11.70;;;4.03;;
3487;SDS011;38546;48.170;11.724;2023-12-28T14:07:53;6.00;;;3.30;;
3487;SDS011;38546;48.170;11.724;2023-12-28T14:10:42;2.73;;;2.47;;
3487;SDS011;38546;48.170;11.724;2023-12-28T14:13:32;2.63;;;2.23;;
3487;SDS011;38546;48.170;11.724;2023-12-28T14:16:23;3.63;;;2.17;;
3487;SDS011;38546;48.170;11.724;2023-12-28T14:19:12;1.90;;;1.77;;
3487;SDS011;38546;48.170;11.724;2023-12-28T14:22:01;4.70;;;2.40;;
3487;SDS011;38546;48.170;11.724;2023-12-28T14:24:52;3.20;;;2.50;;
3487;SDS011;38546;48.170;11.724;2023-12-28T14:27:42;6.80;;;3.20;;
3487;SDS011;38546;48.170;11.724;2023-12-28T14:30:32;6.60;;;3.87;;
3487;SDS011;38546;48.170;11.724;2023-12-28T14:33:22;5.40;;;2.60;;
3487;SDS011;38546;48.170;11.724;2023-12-28T14:36:26;3.00;;;2.10;;
3487;SDS011;38546;48.170;11.724;2023-12-28T14:39:20;2.27;;;2.17;;
3487;SDS011;38546;48.170;11.724;2023-12-28T14:42:09;2.47;;;2.27;;
3487;SDS011;38546;48.170;11.724;2023-12-28T14:44:59;3.97;;;2.50;;
3487;SDS011;38546;48.170;11.724;2023-12-28T14:47:49;2.93;;;2.80;;
3487;SDS011;38546;48.170;11.724;2023-12-28T14:50:39;3.00;;;2.80;;
3487;SDS011;38546;48.170;11.724;2023-12-28T14:53:28;2.30;;;2.10;;
3487;SDS011;38546;48.170;11.724;2023-12-28T14:56:17;2.87;;;2.57;;
3487;SDS011;38546;48.170;11.724;2023-12-28T14:59:06;2.00;;;1.90;;
3487;SDS011;38546;48.170;11.724;2023-12-28T15:01:55;2.13;;;2.03;;
3487;SDS011;38546;48.170;11.724;2023-12-28T15:04:45;3.13;;;2.30;;
3487;SDS011;38546;48.170;11.724;2023-12-28T15:07:34;3.47;;;2.00;;
3487;SDS011;38546;48.170;11.724;2023-12-28T15:10:23;1.73;;;1.63;;
3487;SDS011;38546;48.170;11.724;2023-12-28T15:13:13;3.00;;;1.80;;
3487;SDS011;38546;48.170;11.724;2023-12-28T15:16:06;4.10;;;1.80;;
3487;SDS011;38546;48.170;11.724;2023-12-28T15:18:56;2.03;;;1.90;;
3487;SDS011;38546;48.170;11.724;2023-12-28T15:21:45;1.93;;;1.83;;
3487;SDS011;38546;48.170;11.724;2023-12-28T15:24:35;3.40;;;2.90;;
3487;SDS011;38546;48.170;11.724;2023-12-28T15:27:25;3.67;;;2.80;;
3487;SDS011;38546;48.170;11.724;2023-12-28T15:30:14;9.17;;;4.20;;
3487;SDS011;38546;48.170;11.724;2023-12-28T15:33:03;11.23;;;5.90;;
3487;SDS011;38546;48.170;11.724;2023-12-28T15:35:53;8.23;;;4.53;;
3487;SDS011;38546;48.170;11.724;2023-12-28T15:38:43;5.10;;;4.57;;
3487;SDS011;38546;48.170;11.724;2023-12-28T15:41:32;8.60;;;5.00;;
3487;SDS011;38546;48.170;11.724;2023-12-28T15:44:21;6.67;;;4.20;;
3487;SDS011;38546;48.170;11.724;2023-12-28T15:47:10;7.30;;;4.10;;
3487;SDS011;38546;48.170;11.724;2023-12-28T15:49:59;7.83;;;3.73;;
3487;SDS011;38546;48.170;11.724;2023-12-28T15:52:49;3.13;;;2.83;;
3487;SDS011;38546;48.170;11.724;2023-12-28T15:55:38;3.90;;;3.47;;
3487;SDS011;38546;48.170;11.724;2023-12-28T15:58:28;3.30;;;2.63;;
3487;SDS011;38546;48.170;11.724;2023-12-28T16:01:17;4.07;;;2.43;;
3487;SDS011;38546;48.170;11.724;2023-12-28T16:04:06;4.00;;;2.97;;
3487;SDS011;38546;48.170;11.724;2023-12-28T16:06:56;3.00;;;2.73;;
3487;SDS011;38546;48.170;11.724;2023-12-28T16:09:44;3.17;;;2.87;;
3487;SDS011;38546;48.170;11.724;2023-12-28T16:12:33;2.10;;;2.00;;
3487;SDS011;38546;48.170;11.724;2023-12-28T16:15:22;4.30;;;2.90;;
3487;SDS011;38546;48.170;11.724;2023-12-28T16:18:12;6.27;;;4.20;;
3487;SDS011;38546;48.170;11.724;2023-12-28T16:21:02;3.80;;;3.17;;
3487;SDS011;38546;48.170;11.724;2023-12-28T16:23:52;3.20;;;2.50;;
3487;SDS011;38546;48.170;11.724;2023-12-28T16:26:42;2.73;;;2.47;;
3487;SDS011;38546;48.170;11.724;2023-12-28T16:29:31;2.27;;;2.17;;
3487;SDS011;38546;48.170;11.724;2023-12-28T16:32:20;2.53;;;2.33;;
3487;SDS011;38546;48.170;11.724;2023-12-28T16:35:09;1.63;;;1.63;;
3487;SDS011;38546;48.170;11.724;2023-12-28T16:37:58;1.80;;;1.70;;
3487;SDS011;38546;48.170;11.724;2023-12-28T16:40:47;2.00;;;1.90;;
3487;SDS011;38546;48.170;11.724;2023-12-28T16:43:36;2.00;;;1.90;;
3487;SDS011;38546;48.170;11.724;2023-12-28T16:46:27;2.90;;;2.70;;
3487;SDS011;38546;48.170;11.724;2023-12-28T16:49:16;2.20;;;2.03;;
3487;SDS011;38546;48.170;11.724;2023-12-28T16:52:05;5.83;;;3.70;;
3487;SDS011;38546;48.170;11.724;2023-12-28T16:54:55;5.97;;;4.10;;
3487;SDS011;38546;48.170;11.724;2023-12-28T16:57:44;5.93;;;4.53;;
3487;SDS011;38546;48.170;11.724;2023-12-28T17:00:33;7.63;;;4.17;;
3487;SDS011;38546;48.170;11.724;2023-12-28T17:03:25;3.30;;;3.00;;
3487;SDS011;38546;48.170;11.724;2023-12-28T17:06:14;6.47;;;3.50;;